Jacksonville, Illinois
Current Conditions -  °F | °C
As of 1:35 PM on Saturday 25 Oct 2014 (Local Time) from KIJX Reporting Station
Clear Clear  
Wind Chill: 80°   Ceiling: Unl
Heat Index: 80°   Visibility: 10mi
Dew Point: 51°   Wind: 5mph
Humidity: 37%   Direction: 340°NNW
Pressure: 30.02"   Gusts: NA
Location:  39.75°N, 90.23°W
Report Text: KIJX 251835Z AUTO 34004KT 10SM CLR 27/11 A3002 RMK AO2 T02650105
Loading
Personal Weather Stations






























Interactive Weather Map New forecast layout! Learn more

10-Day Weather Forecast

Advertisements
Track Severe Weather on mobile